Time;durP1;ratioP1;P1;durP2;ratioP2;P2;SDS_P1;SDS_P2;PMS_P1;PMS_P2;Temp;Humidity;BMP_temperature;BMP_pressure;BME280_temperature;BME280_humidity;BME280_pressure;Samples;Min_cycle;Max_cycle;Signal;HPM_P1;HPM_P2
2022/01/31 00:00:13;;;;;;;22.97;17.97;;;0.80;99.90;;;;;;5000793;28;20503;-78
2022/01/31 00:02:40;;;;;;;20.57;17.53;;;0.80;99.90;;;;;;5003722;28;20475;-77
2022/01/31 00:05:07;;;;;;;24.83;18.83;;;0.80;99.90;;;;;;5001130;28;20560;-77
2022/01/31 00:07:35;;;;;;;22.20;18.87;;;0.80;99.90;;;;;;5003467;28;20439;-77
2022/01/31 00:10:06;;;;;;;20.63;18.43;;;0.80;99.90;;;;;;5003846;28;20465;-77
2022/01/31 00:12:38;;;;;;;25.63;19.97;;;0.80;99.90;;;;;;5012642;28;20446;-77
2022/01/31 00:15:06;;;;;;;24.47;21.07;;;0.80;99.90;;;;;;5001071;28;20455;-77
2022/01/31 00:17:33;;;;;;;24.37;20.77;;;0.80;99.90;;;;;;5001984;28;20474;-77
2022/01/31 00:20:00;;;;;;;23.97;19.97;;;0.80;99.90;;;;;;5021972;28;20630;-77
2022/01/31 00:22:26;;;;;;;20.80;18.60;;;0.80;99.90;;;;;;5001388;28;21016;-78
2022/01/31 00:24:54;;;;;;;25.97;21.33;;;0.80;99.90;;;;;;5002646;28;20487;-78
2022/01/31 00:27:21;;;;;;;26.23;19.73;;;0.80;99.90;;;;;;5005168;28;20446;-78
2022/01/31 00:29:48;;;;;;;21.63;19.50;;;0.80;99.90;;;;;;5004880;28;20979;-77
2022/01/31 00:32:15;;;;;;;28.70;20.97;;;0.80;99.90;;;;;;4996378;28;20469;-77
2022/01/31 00:34:42;;;;;;;21.17;19.20;;;0.80;99.90;;;;;;5004038;28;20436;-78
2022/01/31 00:37:08;;;;;;;21.23;18.93;;;0.80;99.90;;;;;;5003777;28;20454;-78
2022/01/31 00:39:36;;;;;;;27.67;20.00;;;0.80;99.90;;;;;;5002394;28;21008;-77
2022/01/31 00:42:07;;;;;;;22.10;19.63;;;0.80;99.90;;;;;;5022147;28;20537;-77
2022/01/31 00:44:39;;;;;;;21.90;19.57;;;0.80;99.90;;;;;;5025739;28;20838;-77
2022/01/31 00:47:17;;;;;;;20.80;18.80;;;0.80;99.90;;;;;;5007226;28;20456;-77
2022/01/31 00:49:49;;;;;;;27.23;20.00;;;0.80;99.90;;;;;;5017840;28;20480;-77
2022/01/31 00:52:16;;;;;;;24.30;20.57;;;0.80;99.90;;;;;;5009197;28;20938;-78
2022/01/31 00:54:43;;;;;;;24.47;20.07;;;0.90;99.90;;;;;;5005386;28;20447;-77
2022/01/31 00:57:11;;;;;;;24.10;20.57;;;0.90;99.90;;;;;;5007026;28;20476;-77
2022/01/31 00:59:38;;;;;;;28.43;19.97;;;0.90;99.90;;;;;;5004285;28;20520;-78
2022/01/31 01:02:05;;;;;;;22.87;20.40;;;1.00;99.90;;;;;;5021994;28;20470;-77
2022/01/31 01:04:32;;;;;;;21.17;18.80;;;1.10;99.90;;;;;;5025680;28;20488;-77
2022/01/31 01:07:00;;;;;;;19.97;18.00;;;1.10;99.90;;;;;;5006639;28;20525;-77
2022/01/31 01:09:26;;;;;;;21.30;19.00;;;1.10;99.90;;;;;;5003059;28;20458;-77
2022/01/31 01:11:53;;;;;;;22.83;17.90;;;1.20;99.90;;;;;;5002472;28;20482;-77
2022/01/31 01:14:21;;;;;;;20.93;18.13;;;1.30;99.90;;;;;;5001911;28;20450;-77
2022/01/31 01:16:48;;;;;;;18.63;16.83;;;1.30;99.90;;;;;;5003945;28;20441;-78
2022/01/31 01:19:15;;;;;;;20.33;17.17;;;1.40;99.90;;;;;;5023000;28;20979;-78
2022/01/31 01:21:42;;;;;;;20.17;16.73;;;1.40;99.90;;;;;;5028855;28;20828;-77
2022/01/31 01:24:09;;;;;;;19.97;17.40;;;1.50;99.90;;;;;;5015887;28;20449;-77
2022/01/31 01:26:36;;;;;;;21.37;17.70;;;1.50;99.90;;;;;;5017738;28;20481;-77
2022/01/31 01:29:03;;;;;;;20.87;17.37;;;1.40;99.90;;;;;;5010789;28;20461;-77
2022/01/31 01:31:33;;;;;;;21.23;17.83;;;1.40;99.90;;;;;;5006326;28;20479;-77
2022/01/31 01:33:59;;;;;;;26.80;19.17;;;1.40;99.90;;;;;;5021066;28;20450;-77
2022/01/31 01:36:26;;;;;;;28.00;19.03;;;1.30;99.90;;;;;;5004983;28;20448;-77
2022/01/31 01:38:53;;;;;;;22.80;17.97;;;1.30;99.90;;;;;;5001805;28;20934;-77
2022/01/31 01:41:20;;;;;;;24.03;19.03;;;1.30;99.90;;;;;;5004044;28;20501;-77
2022/01/31 01:43:47;;;;;;;21.93;19.37;;;1.30;99.90;;;;;;5020993;28;20937;-77
2022/01/31 01:46:14;;;;;;;21.27;18.97;;;1.30;99.90;;;;;;5001477;28;20473;-77
2022/01/31 01:48:42;;;;;;;21.37;18.07;;;1.30;99.90;;;;;;4997757;28;20452;-77
2022/01/31 01:51:13;;;;;;;18.70;16.70;;;1.40;99.90;;;;;;5016715;28;20540;-77
2022/01/31 01:53:40;;;;;;;19.67;17.63;;;1.40;99.90;;;;;;5019694;28;20465;-77
2022/01/31 01:56:09;;;;;;;24.47;18.17;;;1.40;99.90;;;;;;5003306;28;20452;-77
2022/01/31 01:58:40;;;;;;;22.70;18.57;;;1.40;99.90;;;;;;4984744;28;20974;-77
2022/01/31 02:01:09;;;;;;;20.87;18.00;;;1.30;99.90;;;;;;5029559;22;20485;-78
2022/01/31 02:03:58;;;;;;;22.30;19.00;;;1.40;99.90;;;;;;5005544;28;20891;-79
2022/01/31 02:06:33;;;;;;;19.80;17.77;;;1.30;99.90;;;;;;4991360;28;20520;-79
2022/01/31 02:09:02;;;;;;;19.50;17.40;;;1.30;99.90;;;;;;4999426;28;20966;-78
2022/01/31 02:11:31;;;;;;;20.77;18.47;;;1.30;99.90;;;;;;5006817;28;21061;-78
2022/01/31 02:13:59;;;;;;;21.57;17.93;;;1.30;99.90;;;;;;4982081;28;20457;-79
2022/01/31 02:17:05;;;;;;;21.37;17.93;;;1.40;99.90;;;;;;4975479;28;20454;-80
2022/01/31 02:19:39;;;;;;;19.67;17.27;;;1.40;99.90;;;;;;4985065;28;20451;-78
2022/01/31 02:22:21;;;;;;;18.40;16.60;;;1.40;99.90;;;;;;4984763;28;20473;-79
2022/01/31 02:25:12;;;;;;;19.00;17.10;;;1.50;99.90;;;;;;4984595;28;20477;-79
2022/01/31 02:27:58;;;;;;;19.03;17.03;;;1.60;99.90;;;;;;4986486;28;20435;-78
2022/01/31 02:30:25;;;;;;;22.13;17.23;;;1.60;99.90;;;;;;4993020;28;20528;-78
2022/01/31 02:32:52;;;;;;;20.37;17.27;;;1.60;99.90;;;;;;4992854;28;20443;-78
2022/01/31 02:35:19;;;;;;;18.67;16.97;;;1.70;99.90;;;;;;4993187;28;20465;-78
2022/01/31 02:37:47;;;;;;;17.73;16.23;;;1.80;99.90;;;;;;4992681;28;20450;-78
2022/01/31 02:40:20;;;;;;;18.57;16.77;;;1.80;99.90;;;;;;4992959;28;20810;-76
2022/01/31 02:42:46;;;;;;;18.73;16.97;;;1.90;99.90;;;;;;4993020;28;20461;-78
2022/01/31 02:45:13;;;;;;;19.83;17.83;;;1.90;99.90;;;;;;4986477;28;20559;-79
2022/01/31 02:47:50;;;;;;;18.43;16.73;;;2.00;99.90;;;;;;4980034;28;20987;-78
2022/01/31 02:50:17;;;;;;;19.60;17.50;;;2.00;99.90;;;;;;4982843;28;20462;-78
2022/01/31 02:52:47;;;;;;;19.40;17.07;;;1.90;99.90;;;;;;5013988;28;20464;-79
2022/01/31 02:55:17;;;;;;;19.33;17.00;;;1.90;99.90;;;;;;4982854;28;20865;-77
2022/01/31 02:57:44;;;;;;;19.33;17.40;;;1.90;99.90;;;;;;5007087;28;20524;-80
2022/01/31 03:00:15;;;;;;;18.40;16.63;;;1.90;99.90;;;;;;5014880;28;20506;-78
2022/01/31 03:02:59;;;;;;;19.63;17.73;;;2.00;99.90;;;;;;5013585;28;20491;-78
2022/01/31 03:05:26;;;;;;;18.13;16.33;;;2.00;99.90;;;;;;5013607;28;20475;-78
2022/01/31 03:07:53;;;;;;;17.00;15.70;;;2.10;99.90;;;;;;5015198;28;20545;-78
2022/01/31 03:10:22;;;;;;;16.87;15.23;;;2.20;99.90;;;;;;4979509;28;20456;-78
2022/01/31 03:12:50;;;;;;;17.70;15.93;;;2.20;99.90;;;;;;5013834;28;20485;-78
2022/01/31 03:15:17;;;;;;;17.73;16.13;;;2.20;99.90;;;;;;4982129;28;20445;-78
2022/01/31 03:18:07;;;;;;;17.20;15.80;;;2.30;99.90;;;;;;4953655;28;20450;-78
2022/01/31 03:20:35;;;;;;;16.73;14.97;;;2.30;99.90;;;;;;5013187;28;20886;-78
2022/01/31 03:23:02;;;;;;;19.57;15.37;;;2.40;99.90;;;;;;5014579;28;20540;-79
2022/01/31 03:25:30;;;;;;;17.10;15.60;;;2.40;99.90;;;;;;4976895;28;20478;-79
2022/01/31 03:27:57;;;;;;;17.63;15.43;;;2.40;99.90;;;;;;4976327;28;20448;-78
2022/01/31 03:30:25;;;;;;;17.17;15.53;;;2.50;99.90;;;;;;5016051;28;20462;-78
2022/01/31 03:32:56;;;;;;;16.80;15.03;;;2.50;99.90;;;;;;4981671;28;20434;-78
2022/01/31 03:35:24;;;;;;;16.27;14.77;;;2.50;99.90;;;;;;4983137;28;20456;-78
2022/01/31 03:37:51;;;;;;;16.23;14.83;;;2.60;99.90;;;;;;5012841;28;20445;-78
2022/01/31 03:40:23;;;;;;;16.97;15.57;;;2.60;99.90;;;;;;4983237;28;20463;-82
2022/01/31 03:42:53;;;;;;;15.27;14.07;;;2.60;99.90;;;;;;4981975;28;20452;-81
2022/01/31 03:45:20;;;;;;;17.10;14.73;;;2.60;99.90;;;;;;4978000;28;20471;-82
2022/01/31 03:47:52;;;;;;;16.97;15.20;;;2.60;99.90;;;;;;5024004;28;20903;-81
2022/01/31 03:50:19;;;;;;;17.63;15.83;;;2.70;99.90;;;;;;4978181;28;20457;-80
2022/01/31 03:52:52;;;;;;;16.07;14.47;;;2.70;99.90;;;;;;5002007;28;20639;-82
2022/01/31 03:55:21;;;;;;;16.90;15.30;;;2.70;99.90;;;;;;4972411;28;20480;-81
2022/01/31 03:57:50;;;;;;;16.50;15.10;;;2.70;99.90;;;;;;4984135;28;20466;-81
2022/01/31 04:00:37;;;;;;;16.60;15.03;;;2.80;99.90;;;;;;4979390;28;20459;-80
2022/01/31 04:03:04;;;;;;;15.10;13.67;;;2.80;99.90;;;;;;4988064;28;20490;-79
2022/01/31 04:05:31;;;;;;;18.03;14.80;;;2.80;99.90;;;;;;4969790;28;20473;-83
2022/01/31 04:07:58;;;;;;;15.17;13.83;;;2.90;99.90;;;;;;4972024;28;20454;-81
2022/01/31 04:10:25;;;;;;;13.90;11.77;;;2.90;99.90;;;;;;4975535;28;20866;-81
2022/01/31 04:12:52;;;;;;;13.27;11.87;;;3.00;99.90;;;;;;4981379;28;20446;-82
2022/01/31 04:15:19;;;;;;;13.00;11.60;;;3.00;99.90;;;;;;4987242;28;20479;-81
2022/01/31 04:17:47;;;;;;;13.07;11.67;;;3.00;99.90;;;;;;4970708;28;20516;-84
2022/01/31 04:20:14;;;;;;;13.00;11.50;;;3.00;99.90;;;;;;4974657;28;20473;-84
2022/01/31 04:22:47;;;;;;;14.77;11.37;;;3.10;99.90;;;;;;4983443;28;20206;-81
2022/01/31 04:25:29;;;;;;;11.23;10.40;;;3.10;99.90;;;;;;4988753;28;20455;-81
2022/01/31 04:28:02;;;;;;;12.37;11.00;;;3.20;99.90;;;;;;4978713;28;20441;-81
2022/01/31 04:30:30;;;;;;;12.60;11.27;;;3.20;99.90;;;;;;4969455;28;20445;-80
2022/01/31 04:32:58;;;;;;;11.33;10.23;;;3.20;99.90;;;;;;4972888;28;20439;-79
2022/01/31 04:35:25;;;;;;;12.13;10.93;;;3.20;99.90;;;;;;4972940;28;21025;-80
2022/01/31 04:37:53;;;;;;;11.23;10.20;;;3.20;99.90;;;;;;4971201;28;20531;-79
2022/01/31 04:40:20;;;;;;;12.93;10.60;;;3.20;99.90;;;;;;4978831;28;20234;-79
2022/01/31 04:42:46;;;;;;;12.37;11.20;;;3.20;99.90;;;;;;4978056;28;20227;-81
2022/01/31 04:45:13;;;;;;;12.07;10.90;;;3.30;99.90;;;;;;4979020;28;20216;-80
2022/01/31 04:47:40;;;;;;;11.97;10.87;;;3.30;99.90;;;;;;4983313;28;21064;-79
2022/01/31 04:50:09;;;;;;;11.37;10.33;;;3.30;99.90;;;;;;4983084;28;20535;-80
2022/01/31 04:52:38;;;;;;;13.87;10.47;;;3.30;99.90;;;;;;4983899;28;20228;-79
2022/01/31 04:55:07;;;;;;;12.43;10.47;;;3.30;99.90;;;;;;4984046;28;20259;-78
2022/01/31 04:57:33;;;;;;;13.80;9.93;;;3.30;99.90;;;;;;4982525;28;20233;-78
2022/01/31 05:00:00;;;;;;;15.77;10.40;;;3.40;99.90;;;;;;4984152;28;20233;-78
2022/01/31 05:02:27;;;;;;;12.53;10.33;;;3.40;99.90;;;;;;4982309;28;20564;-78
2022/01/31 05:04:54;;;;;;;11.07;10.10;;;3.40;99.90;;;;;;4984262;28;20236;-80
2022/01/31 05:07:22;;;;;;;11.90;10.83;;;3.40;99.90;;;;;;4982591;28;20572;-79
2022/01/31 05:09:49;;;;;;;12.23;10.40;;;3.40;99.90;;;;;;4983997;28;20531;-79
2022/01/31 05:12:16;;;;;;;11.70;10.60;;;3.50;99.90;;;;;;4982155;28;20507;-79
2022/01/31 05:14:42;;;;;;;14.23;12.73;;;3.50;99.90;;;;;;4983805;28;20203;-78
2022/01/31 05:17:09;;;;;;;14.77;13.30;;;3.50;99.90;;;;;;4982624;28;20441;-78
2022/01/31 05:19:36;;;;;;;12.23;10.40;;;3.50;99.90;;;;;;4978087;28;20216;-79
2022/01/31 05:22:03;;;;;;;13.33;10.70;;;3.50;99.90;;;;;;4987186;28;20975;-78
2022/01/31 05:24:32;;;;;;;14.57;11.60;;;3.60;99.90;;;;;;4987424;28;20527;-79
2022/01/31 05:26:58;;;;;;;13.97;12.57;;;3.60;99.90;;;;;;4987146;28;21236;-79
2022/01/31 05:29:25;;;;;;;12.30;10.93;;;3.60;99.90;;;;;;4984558;28;20289;-78
2022/01/31 05:31:52;;;;;;;12.10;10.50;;;3.60;99.90;;;;;;4988312;28;20260;-78
2022/01/31 05:34:19;;;;;;;7.93;7.13;;;3.60;99.90;;;;;;4984714;28;20459;-79
2022/01/31 05:36:46;;;;;;;11.70;8.47;;;3.60;99.90;;;;;;4988082;28;20205;-78
2022/01/31 05:39:13;;;;;;;8.83;4.37;;;3.60;99.90;;;;;;4985489;28;20313;-79
2022/01/31 05:41:41;;;;;;;8.03;4.40;;;3.60;99.90;;;;;;4988145;28;20495;-79
2022/01/31 05:44:08;;;;;;;7.37;4.77;;;3.60;99.90;;;;;;4986242;28;20709;-79
2022/01/31 05:46:35;;;;;;;8.00;4.50;;;3.60;99.90;;;;;;4983218;28;20309;-79
2022/01/31 05:49:02;;;;;;;8.10;4.93;;;3.70;99.90;;;;;;4982842;28;20256;-79
2022/01/31 05:51:29;;;;;;;8.07;4.40;;;3.70;99.90;;;;;;4976372;28;20733;-79
2022/01/31 05:53:55;;;;;;;8.50;4.80;;;3.70;99.90;;;;;;4983572;28;20225;-79
2022/01/31 05:56:24;;;;;;;8.80;4.30;;;3.70;99.90;;;;;;4986310;28;20615;-77
2022/01/31 05:58:52;;;;;;;7.03;4.70;;;3.70;99.90;;;;;;4985814;28;20233;-79
2022/01/31 06:01:19;;;;;;;7.83;4.73;;;3.80;99.90;;;;;;4985451;28;20290;-79
2022/01/31 06:03:46;;;;;;;8.70;4.60;;;3.80;99.90;;;;;;5018819;28;20700;-79
2022/01/31 06:06:12;;;;;;;6.53;4.27;;;3.80;99.90;;;;;;4984978;28;20477;-79
2022/01/31 06:08:39;;;;;;;12.30;7.93;;;3.90;99.90;;;;;;4988981;28;20245;-77
2022/01/31 06:11:06;;;;;;;10.83;4.37;;;3.90;99.90;;;;;;4979182;28;20489;-79
2022/01/31 06:13:34;;;;;;;7.27;4.77;;;3.90;99.90;;;;;;4986430;28;20277;-79
2022/01/31 06:16:02;;;;;;;6.30;4.37;;;3.90;99.90;;;;;;5015921;28;20290;-79
2022/01/31 06:18:29;;;;;;;12.30;4.63;;;4.00;99.90;;;;;;4976611;28;20201;-78
2022/01/31 06:20:56;;;;;;;8.43;5.30;;;4.00;99.90;;;;;;5020368;28;20217;-79
2022/01/31 06:23:25;;;;;;;12.93;4.60;;;4.00;99.90;;;;;;5014627;28;20209;-77
2022/01/31 06:25:52;;;;;;;14.93;7.63;;;4.00;99.90;;;;;;4988736;28;20199;-77
2022/01/31 06:28:18;;;;;;;10.17;4.87;;;4.00;99.90;;;;;;5014937;28;20239;-78
2022/01/31 06:30:45;;;;;;;7.73;6.53;;;4.10;99.90;;;;;;4983835;28;20237;-79
2022/01/31 06:33:16;;;;;;;12.00;6.63;;;4.10;99.90;;;;;;4984802;28;20745;-79
2022/01/31 06:35:43;;;;;;;11.03;7.83;;;4.10;99.90;;;;;;4987557;28;20670;-79
2022/01/31 06:38:10;;;;;;;5.40;4.47;;;4.10;99.90;;;;;;5015878;28;20514;-79
2022/01/31 06:40:37;;;;;;;10.77;5.80;;;4.10;99.90;;;;;;4982711;28;20272;-80
2022/01/31 06:43:04;;;;;;;16.67;10.30;;;4.10;99.90;;;;;;4975600;28;20271;-80
2022/01/31 06:45:31;;;;;;;10.13;7.20;;;4.10;99.90;;;;;;5007188;28;20201;-79
2022/01/31 06:47:58;;;;;;;12.97;11.40;;;4.10;99.90;;;;;;4978046;28;20687;-79
2022/01/31 06:50:26;;;;;;;13.47;12.10;;;4.10;99.90;;;;;;4974118;28;20679;-79
2022/01/31 06:52:56;;;;;;;13.00;11.80;;;4.10;99.90;;;;;;5017561;28;20244;-78
2022/01/31 06:55:23;;;;;;;13.00;11.90;;;4.10;99.90;;;;;;4981242;28;20214;-77
2022/01/31 06:57:51;;;;;;;14.57;13.10;;;4.10;99.90;;;;;;4973493;28;20201;-80
2022/01/31 07:00:20;;;;;;;13.60;12.37;;;4.10;99.90;;;;;;5000703;28;20761;-79
2022/01/31 07:02:47;;;;;;;16.57;13.10;;;4.00;99.90;;;;;;4972058;28;20452;-79
2022/01/31 07:05:14;;;;;;;16.63;13.30;;;4.00;99.90;;;;;;5004706;28;20210;-81
2022/01/31 07:07:42;;;;;;;13.73;12.23;;;4.00;99.90;;;;;;4966527;28;20258;-81
2022/01/31 07:10:10;;;;;;;13.33;12.13;;;4.00;99.90;;;;;;4973709;28;20202;-80
2022/01/31 07:12:39;;;;;;;14.27;12.80;;;4.00;99.90;;;;;;4982025;28;20200;-80
2022/01/31 07:15:08;;;;;;;13.30;12.10;;;4.00;99.90;;;;;;4976683;28;20289;-77
2022/01/31 07:17:35;;;;;;;14.33;13.00;;;4.00;99.90;;;;;;5004679;28;20733;-79
2022/01/31 07:20:04;;;;;;;13.37;12.30;;;4.00;99.90;;;;;;4981305;28;20232;-79
2022/01/31 07:22:35;;;;;;;14.13;12.90;;;4.00;99.90;;;;;;4976392;28;20494;-79
2022/01/31 07:25:08;;;;;;;14.33;12.90;;;4.00;99.90;;;;;;4989271;28;20194;-80
2022/01/31 07:27:36;;;;;;;14.10;12.80;;;4.00;99.90;;;;;;4982000;28;20556;-80
2022/01/31 07:30:04;;;;;;;13.70;12.40;;;4.00;99.90;;;;;;4980177;28;20569;-81
2022/01/31 07:32:31;;;;;;;13.67;12.33;;;4.00;99.90;;;;;;4986483;28;20245;-79
2022/01/31 07:34:58;;;;;;;13.07;11.80;;;4.00;99.90;;;;;;4980230;28;20449;-79
2022/01/31 07:37:26;;;;;;;13.67;12.37;;;4.00;99.90;;;;;;5019144;28;20201;-80
2022/01/31 07:39:53;;;;;;;13.30;11.67;;;4.00;99.90;;;;;;5012220;28;20198;-79
2022/01/31 07:42:21;;;;;;;12.50;11.47;;;4.00;99.90;;;;;;4979961;28;20252;-80
2022/01/31 07:44:49;;;;;;;12.57;11.57;;;4.00;99.90;;;;;;4977736;28;20273;-79
2022/01/31 07:47:16;;;;;;;13.80;12.10;;;4.00;99.90;;;;;;4979605;28;20229;-80
2022/01/31 07:49:43;;;;;;;13.93;12.90;;;3.90;99.90;;;;;;5011374;28;20206;-79
2022/01/31 07:52:10;;;;;;;13.83;12.53;;;3.90;99.90;;;;;;4983698;28;20218;-80
2022/01/31 07:54:36;;;;;;;13.07;12.07;;;3.90;99.90;;;;;;4984889;28;20435;-81
2022/01/31 07:57:04;;;;;;;13.13;12.00;;;3.90;99.90;;;;;;4980639;28;20252;-80
2022/01/31 07:59:32;;;;;;;13.40;12.30;;;4.00;99.90;;;;;;5015927;28;20714;-80
2022/01/31 08:01:59;;;;;;;13.63;12.10;;;3.90;99.90;;;;;;5026808;22;20278;-79
2022/01/31 08:04:26;;;;;;;19.03;13.10;;;3.90;99.90;;;;;;5028512;28;20203;-79
2022/01/31 08:06:52;;;;;;;13.73;12.60;;;3.90;99.90;;;;;;5028454;28;20212;-80
2022/01/31 08:09:20;;;;;;;13.93;12.53;;;3.90;99.90;;;;;;5028795;28;20207;-80
2022/01/31 08:11:46;;;;;;;13.67;12.53;;;3.90;99.90;;;;;;5024878;28;20232;-80
2022/01/31 08:14:17;;;;;;;13.33;12.23;;;3.90;99.90;;;;;;5007879;28;20820;-81
2022/01/31 08:16:45;;;;;;;13.17;12.27;;;3.90;99.90;;;;;;5009624;28;20204;-79
2022/01/31 08:19:12;;;;;;;13.67;12.57;;;4.00;99.90;;;;;;5009677;28;20235;-82
2022/01/31 08:21:39;;;;;;;13.77;12.60;;;3.90;99.90;;;;;;5002457;28;20213;-82
2022/01/31 08:24:07;;;;;;;14.10;12.77;;;3.90;99.90;;;;;;4987626;28;20209;-80
2022/01/31 08:26:34;;;;;;;14.23;12.80;;;3.90;99.90;;;;;;5004967;28;20207;-80
2022/01/31 08:29:04;;;;;;;13.17;12.30;;;4.00;99.90;;;;;;5008472;28;20208;-81
2022/01/31 08:31:34;;;;;;;13.93;12.70;;;4.00;99.90;;;;;;4995269;28;20247;-81
2022/01/31 08:34:17;;;;;;;13.27;12.30;;;4.00;99.90;;;;;;5004122;28;20299;-79
2022/01/31 08:36:44;;;;;;;13.73;12.70;;;4.00;99.90;;;;;;5004233;28;20242;-78
2022/01/31 08:39:14;;;;;;;13.37;12.37;;;4.10;99.90;;;;;;4997622;28;20205;-79
2022/01/31 08:41:42;;;;;;;13.30;12.30;;;4.10;99.90;;;;;;4995383;28;20223;-79
2022/01/31 08:44:11;;;;;;;13.47;12.57;;;4.10;99.90;;;;;;5005117;28;20263;-77
2022/01/31 08:46:40;;;;;;;13.00;12.10;;;4.10;99.90;;;;;;4993642;28;20248;-79
2022/01/31 08:49:09;;;;;;;13.30;12.30;;;4.20;99.90;;;;;;5008191;28;20263;-79
2022/01/31 08:51:36;;;;;;;13.27;12.30;;;4.20;99.90;;;;;;5005019;28;20232;-79
2022/01/31 08:54:05;;;;;;;12.90;12.00;;;4.20;99.90;;;;;;4996971;28;20204;-79
2022/01/31 08:56:35;;;;;;;13.40;12.50;;;4.20;99.90;;;;;;5001995;28;20208;-79
2022/01/31 08:59:04;;;;;;;12.73;11.93;;;4.20;99.90;;;;;;5006618;28;20718;-79
2022/01/31 09:01:31;;;;;;;12.57;11.87;;;4.20;99.90;;;;;;4999545;28;20844;-79
2022/01/31 09:04:05;;;;;;;12.63;11.73;;;4.10;99.90;;;;;;5002317;28;20197;-79
2022/01/31 09:06:36;;;;;;;12.90;12.10;;;4.20;99.90;;;;;;5003672;28;20204;-76
2022/01/31 09:09:08;;;;;;;12.13;11.43;;;4.30;99.90;;;;;;4995407;28;20221;-78
2022/01/31 09:11:36;;;;;;;12.70;11.80;;;4.40;99.90;;;;;;4992449;28;20216;-76
2022/01/31 09:14:04;;;;;;;12.83;12.03;;;4.40;99.90;;;;;;4984556;28;20773;-76
2022/01/31 09:16:31;;;;;;;12.57;11.80;;;4.40;99.90;;;;;;5000093;28;20772;-76
2022/01/31 09:18:58;;;;;;;12.33;11.53;;;4.40;99.90;;;;;;4998529;28;20182;-76
2022/01/31 09:21:25;;;;;;;12.03;11.40;;;4.30;99.90;;;;;;5003669;28;20212;-76
2022/01/31 09:23:53;;;;;;;11.63;10.93;;;4.30;99.90;;;;;;4996738;28;20206;-76
2022/01/31 09:26:22;;;;;;;11.67;11.00;;;4.20;99.90;;;;;;5003892;28;20194;-75
2022/01/31 09:28:51;;;;;;;11.67;10.97;;;4.30;99.90;;;;;;4992236;28;20301;-76
2022/01/31 09:31:18;;;;;;;11.40;10.70;;;4.30;99.90;;;;;;4996023;28;20506;-76
2022/01/31 09:33:45;;;;;;;11.47;10.87;;;4.30;99.90;;;;;;4998544;28;20736;-77
2022/01/31 09:36:12;;;;;;;11.70;10.90;;;4.20;99.90;;;;;;5006057;28;20204;-77
2022/01/31 09:38:41;;;;;;;12.17;11.47;;;4.40;99.90;;;;;;5003718;28;20547;-77
2022/01/31 09:41:11;;;;;;;12.13;11.37;;;4.60;99.90;;;;;;5002116;28;20597;-77
2022/01/31 09:44:01;;;;;;;12.07;11.37;;;4.80;99.90;;;;;;5000836;28;20292;-77
2022/01/31 09:46:47;;;;;;;11.63;10.93;;;4.80;99.90;;;;;;4995578;28;20578;-76
2022/01/31 09:49:14;;;;;;;11.97;11.27;;;5.00;99.90;;;;;;5006992;28;20585;-76
2022/01/31 09:51:41;;;;;;;11.70;11.10;;;5.10;99.90;;;;;;5003351;28;20250;-77
2022/01/31 09:54:08;;;;;;;11.80;11.10;;;5.10;99.90;;;;;;5009530;28;20197;-76
2022/01/31 09:56:38;;;;;;;11.73;11.10;;;5.20;99.90;;;;;;4990622;28;20667;-77
2022/01/31 09:59:07;;;;;;;11.83;11.07;;;5.30;99.90;;;;;;4994104;28;20192;-77
2022/01/31 10:01:36;;;;;;;11.67;11.07;;;5.30;99.90;;;;;;4996821;28;20236;-77
2022/01/31 10:04:07;;;;;;;11.60;10.90;;;5.40;99.90;;;;;;5004267;28;20252;-77
2022/01/31 10:06:36;;;;;;;11.40;10.80;;;5.50;99.90;;;;;;4990670;28;20228;-76
2022/01/31 10:09:07;;;;;;;12.50;11.80;;;5.60;99.90;;;;;;5004246;28;20241;-77
2022/01/31 10:11:42;;;;;;;10.90;10.30;;;5.80;99.90;;;;;;5002379;28;20217;-77
2022/01/31 10:17:05;;;;;;;2.80;2.60;;;6.30;99.90;;;;;;4995667;28;20210;-76
2022/01/31 10:19:39;;;;;;;4.83;4.33;;;6.60;99.90;;;;;;4996484;28;20211;-77
2022/01/31 10:22:08;;;;;;;9.47;8.90;;;6.80;99.90;;;;;;4994773;28;20251;-77
2022/01/31 10:24:37;;;;;;;7.63;7.17;;;7.00;99.90;;;;;;5009068;28;20654;-76
2022/01/31 10:27:13;;;;;;;8.70;8.10;;;7.20;99.90;;;;;;4990973;28;20196;-77
2022/01/31 10:29:41;;;;;;;11.17;10.37;;;7.20;99.90;;;;;;5005560;28;20269;-77
2022/01/31 10:32:10;;;;;;;9.80;9.00;;;7.30;99.90;;;;;;5003744;28;20231;-76
2022/01/31 10:34:46;;;;;;;11.40;10.70;;;7.20;99.90;;;;;;5000470;28;20207;-77
2022/01/31 10:37:15;;;;;;;6.47;5.87;;;7.10;99.90;;;;;;5001404;28;20736;-76
2022/01/31 10:54:05;;;;;;;7.67;6.97;;;6.80;99.90;;;;;;4998395;28;20202;-77
2022/01/31 10:56:38;;;;;;;7.00;6.47;;;6.70;99.90;;;;;;4996044;28;20207;-77
2022/01/31 10:59:09;;;;;;;5.90;5.50;;;6.70;99.90;;;;;;5000052;28;20199;-77
2022/01/31 11:01:38;;;;;;;8.27;7.57;;;6.80;99.90;;;;;;5004315;28;20229;-77
2022/01/31 11:04:07;;;;;;;8.67;8.13;;;6.70;99.90;;;;;;5000809;28;20198;-79
2022/01/31 11:06:34;;;;;;;7.37;6.77;;;6.80;99.90;;;;;;5003224;28;20198;-77
2022/01/31 11:09:04;;;;;;;10.17;9.33;;;6.80;99.90;;;;;;5000268;28;20232;-77
2022/01/31 11:11:32;;;;;;;8.40;6.27;;;6.80;99.90;;;;;;4988569;28;20231;-78
2022/01/31 11:14:00;;;;;;;6.93;6.10;;;6.70;99.90;;;;;;4995362;28;20210;-78
2022/01/31 11:16:28;;;;;;;6.63;6.13;;;6.80;99.90;;;;;;5006071;28;20195;-78
2022/01/31 11:18:58;;;;;;;10.00;9.27;;;6.90;99.90;;;;;;5001259;28;20259;-77
2022/01/31 11:21:29;;;;;;;8.10;7.50;;;6.90;99.90;;;;;;5007455;28;20318;-78
2022/01/31 11:24:01;;;;;;;8.77;8.17;;;7.00;99.90;;;;;;4995484;28;20202;-79
2022/01/31 11:26:36;;;;;;;8.40;7.57;;;7.10;99.90;;;;;;4989750;28;20201;-76
2022/01/31 11:29:04;;;;;;;9.93;9.30;;;7.20;99.90;;;;;;4984190;28;20218;-76
2022/01/31 11:31:33;;;;;;;8.03;6.23;;;7.20;99.90;;;;;;4987310;28;20677;-76
2022/01/31 11:34:00;;;;;;;7.00;6.57;;;7.20;99.90;;;;;;5001285;28;20195;-77
2022/01/31 11:36:27;;;;;;;7.13;6.50;;;7.20;99.90;;;;;;4996893;28;20209;-77
2022/01/31 11:38:54;;;;;;;8.00;7.47;;;7.20;99.90;;;;;;5002871;28;20194;-76
2022/01/31 11:41:21;;;;;;;8.57;7.73;;;7.20;99.90;;;;;;4996396;28;20716;-76
2022/01/31 11:43:57;;;;;;;8.83;8.27;;;7.10;99.90;;;;;;5009632;28;20194;-78
2022/01/31 11:46:25;;;;;;;6.17;5.63;;;7.20;99.90;;;;;;5001931;28;20266;-77
2022/01/31 11:48:53;;;;;;;11.20;10.40;;;7.20;99.90;;;;;;5004110;28;20296;-76
2022/01/31 11:51:20;;;;;;;11.87;11.17;;;7.20;99.90;;;;;;5003438;28;20231;-76
2022/01/31 11:53:48;;;;;;;7.53;6.83;;;7.20;99.90;;;;;;5000038;28;20588;-76
2022/01/31 11:56:18;;;;;;;6.27;5.77;;;7.10;99.90;;;;;;4992126;28;20674;-76
2022/01/31 11:58:46;;;;;;;6.00;5.20;;;6.90;99.90;;;;;;5000380;28;20209;-76
2022/01/31 12:01:13;;;;;;;5.93;5.50;;;6.90;99.90;;;;;;4997992;28;20262;-76
2022/01/31 12:03:52;;;;;;;9.53;8.90;;;6.90;99.90;;;;;;4997760;28;20212;-76
2022/01/31 12:06:23;;;;;;;10.60;9.83;;;6.80;99.90;;;;;;5003071;28;20199;-76
2022/01/31 12:08:52;;;;;;;10.83;9.93;;;6.70;99.90;;;;;;5005266;28;20202;-78
2022/01/31 12:11:25;;;;;;;11.30;10.50;;;6.60;99.90;;;;;;5006121;28;20226;-78
2022/01/31 12:13:56;;;;;;;10.33;9.73;;;6.50;99.90;;;;;;5004267;28;20202;-77
2022/01/31 12:16:51;;;;;;;10.40;9.70;;;6.40;99.90;;;;;;5006268;28;20616;-78
2022/01/31 12:19:45;;;;;;;11.20;10.50;;;6.30;99.90;;;;;;5000672;28;20191;-77
2022/01/31 12:22:41;;;;;;;11.17;10.30;;;6.40;99.90;;;;;;5005372;28;20226;-77
2022/01/31 12:25:28;;;;;;;11.37;10.67;;;6.40;99.90;;;;;;5004396;28;20288;-78
2022/01/31 12:27:56;;;;;;;11.03;10.10;;;6.40;99.90;;;;;;5003525;28;20626;-77
2022/01/31 12:30:34;;;;;;;10.83;9.93;;;6.40;99.90;;;;;;5000734;28;20347;-78
2022/01/31 12:33:01;;;;;;;10.90;10.10;;;6.40;99.90;;;;;;5006553;28;20232;-78
2022/01/31 12:35:34;;;;;;;7.47;6.87;;;6.40;99.90;;;;;;5006465;28;20248;-78
2022/01/31 12:38:04;;;;;;;3.43;2.90;;;6.30;99.90;;;;;;5005654;28;20205;-77
2022/01/31 12:40:39;;;;;;;8.77;8.17;;;6.20;99.90;;;;;;4994738;28;20579;-78
2022/01/31 12:43:23;;;;;;;7.53;7.03;;;6.10;99.90;;;;;;5008962;28;20210;-78
2022/01/31 12:46:14;;;;;;;12.17;10.93;;;6.00;99.90;;;;;;5014565;28;20208;-78
2022/01/31 12:48:42;;;;;;;10.83;9.93;;;5.90;99.90;;;;;;5004857;28;20593;-79
2022/01/31 12:51:15;;;;;;;6.50;6.10;;;5.80;99.90;;;;;;5014738;28;20272;-79
2022/01/31 12:53:52;;;;;;;7.70;7.17;;;5.80;99.90;;;;;;5013226;28;20205;-78
2022/01/31 12:56:30;;;;;;;6.20;2.80;;;5.90;99.90;;;;;;4996746;28;20210;-78
2022/01/31 12:59:02;;;;;;;9.70;8.97;;;5.90;99.90;;;;;;5002339;28;20198;-78
2022/01/31 13:01:31;;;;;;;3.37;3.13;;;5.90;99.90;;;;;;4989736;28;20290;-78
2022/01/31 13:04:00;;;;;;;12.17;11.40;;;5.90;99.90;;;;;;5000188;28;20724;-79
2022/01/31 13:06:46;;;;;;;10.93;10.17;;;5.90;99.90;;;;;;5004453;28;20196;-80
2022/01/31 13:09:17;;;;;;;10.63;9.87;;;5.80;99.90;;;;;;5006127;28;20248;-80